This is the latest recevied weather packets stored in our database for station/object KO6HRZ. If no packets are shown the sender has not sent any weather packets the latest 10 day(s).
| Time | Temp. | Humidity | Pressure | Rain* | Wind** | Luminosity | Snow |
|---|---|---|---|---|---|---|---|
| 1777748186 | 17.78° C | 75% | 1013.6 hPa | 0 mm | - | 354 W/m² | - |
| 1777747585 | 17.22° C | 76% | 1013.6 hPa | 0 mm | - | 424 W/m² | - |
| 1777746983 | 17.22° C | 77% | 1013.9 hPa | 0 mm | - | 493 W/m² | - |
| 1777746381 | 16.67° C | 79% | 1013.8 hPa | 0 mm | - | 339 W/m² | - |
| 1777745780 | 16.11° C | 80% | 1013.8 hPa | 0 mm | - | 243 W/m² | - |
| 1777745176 | 16.11° C | 79% | 1013.6 hPa | 0 mm | - | 194 W/m² | - |
| 1777744572 | 16.67° C | 79% | 1013.6 hPa | 0 mm | - | 180 W/m² | - |
| 1777743970 | 16.67° C | 78% | 1013.6 hPa | 0 mm | - | 246 W/m² | - |
| 1777743369 | 16.67° C | 79% | 1013.4 hPa | 0 mm | - | 380 W/m² | - |
| 1777742769 | 15.56° C | 81% | 1013.7 hPa | 0 mm | - | 339 W/m² | - |
| 1777742166 | 15.56° C | 81% | 1013.8 hPa | 0 mm | - | 213 W/m² | - |
| 1777741565 | 15.56° C | 82% | 1013.5 hPa | 0 mm | - | 343 W/m² | - |
| 1777740964 | 15° C | 82% | 1013.4 hPa | 0 mm | - | 207 W/m² | - |
| 1777740363 | 15.56° C | 81% | 1013.3 hPa | 0 mm | - | 170 W/m² | - |
| 1777739762 | 15.56° C | 81% | 1013.5 hPa | 0 mm | - | 177 W/m² | - |
| 1777739162 | 16.11° C | 81% | 1013.3 hPa | 0 mm | - | 181 W/m² | - |
| 1777738562 | 16.67° C | 78% | 1013.5 hPa | 0 mm | - | 196 W/m² | - |
| 1777737957 | 16.67° C | 79% | 1013.2 hPa | 0 mm | - | 203 W/m² | - |
| 1777737354 | 16.67° C | 78% | 1013.2 hPa | 0 mm | - | 211 W/m² | - |
| 1777736752 | 16.11° C | 81% | 1013.1 hPa | 0 mm | - | 303 W/m² | - |
| 1777736124 | 15.56° C | 82% | 1013 hPa | 0 mm | - | 283 W/m² | - |
| 1777735519 | 15° C | 84% | 1012.9 hPa | 0 mm | - | 190 W/m² | - |
| 1777734919 | 14.44° C | 86% | 1013 hPa | 0 mm | - | 170 W/m² | - |
| 1777734314 | 13.89° C | 87% | 1012.8 hPa | 0 mm | - | 140 W/m² | - |
| 1777733712 | 13.89° C | 87% | 1012.8 hPa | 0 mm | - | 113 W/m² | - |
* Rain latest hour (hover to see other rain measurements)
** Current wind speed in m/s (hover to see current wind gust speed)